Time;durP1;ratioP1;P1;durP2;ratioP2;P2;SDS_P1;SDS_P2;PMS_P1;PMS_P2;Temp;Humidity;BMP_temperature;BMP_pressure;BME280_temperature;BME280_humidity;BME280_pressure;Samples;Min_cycle;Max_cycle;Signal;HPM_P1;HPM_P2
2023/03/31 00:00:45;;;;;;;20.60;2.83;;;;;;;-146.27;100.00;83581.59;5091358;28;20012;-65
2023/03/31 00:03:20;;;;;;;15.23;2.85;;;;;;;-146.27;100.00;83571.56;5082315;28;20112;-65
2023/03/31 00:05:47;;;;;;;15.40;3.00;;;;;;;-146.27;100.00;83557.50;5086125;28;20028;-63
2023/03/31 00:08:13;;;;;;;16.40;2.78;;;;;;;-146.27;100.00;83533.38;5088539;28;20064;-65
2023/03/31 00:10:44;;;;;;;16.42;2.50;;;;;;;-146.27;100.00;83545.44;5081717;28;20552;-64
2023/03/31 00:13:10;;;;;;;17.00;2.75;;;;;;;-146.27;100.00;83507.25;5083556;28;20032;-67
2023/03/31 00:15:35;;;;;;;19.27;2.95;;;;;;;-146.27;100.00;83579.59;5089397;28;20023;-64
2023/03/31 00:18:01;;;;;;;8.82;2.58;;;;;;;-146.27;100.00;83501.22;5087729;28;20028;-64
2023/03/31 00:20:27;;;;;;;14.68;2.95;;;;;;;-146.27;100.00;83579.59;5090454;28;20028;-64
2023/03/31 00:22:53;;;;;;;14.70;3.10;;;;;;;-146.27;100.00;83537.41;5088160;28;20054;-64
2023/03/31 00:25:19;;;;;;;24.00;4.72;;;;;;;-146.27;100.00;83537.41;5085378;28;20506;-64
2023/03/31 00:27:44;;;;;;;20.40;3.45;;;;;;;-146.27;100.00;83499.22;5088150;28;20028;-65
2023/03/31 00:30:12;;;;;;;14.48;2.72;;;;;;;-146.27;100.00;83557.50;5079751;28;20036;-64
2023/03/31 00:32:37;;;;;;;14.63;2.47;;;;;;;-146.27;100.00;83561.53;5082108;28;20096;-64
2023/03/31 00:35:04;;;;;;;13.73;2.97;;;;;;;-146.27;100.00;83485.16;5087513;28;20103;-65
2023/03/31 00:37:29;;;;;;;14.57;2.85;;;;;;;-146.27;100.00;83529.38;5091980;28;20028;-64
2023/03/31 00:39:55;;;;;;;12.80;2.58;;;;;;;-146.27;100.00;83545.44;5082439;28;20028;-65
2023/03/31 00:42:22;;;;;;;9.80;2.67;;;;;;;-146.27;100.00;83543.44;5083168;28;20028;-64
2023/03/31 00:45:18;;;;;;;16.02;2.63;;;;;;;-146.27;100.00;83557.50;5077700;28;20039;-64
2023/03/31 00:47:59;;;;;;;14.57;3.55;;;;;;;-146.27;100.00;83529.38;5082100;28;20080;-64
2023/03/31 00:50:29;;;;;;;13.73;2.72;;;;;;;-146.27;100.00;83521.34;5077710;28;20086;-65
2023/03/31 00:52:59;;;;;;;13.20;2.70;;;;;;;-146.27;100.00;83537.41;5087182;28;20050;-64
2023/03/31 00:55:31;;;;;;;12.15;2.75;;;;;;;-146.27;100.00;83533.38;5083699;28;20353;-64
2023/03/31 00:57:57;;;;;;;12.23;2.33;;;;;;;-146.27;100.00;83525.34;5074256;28;20103;-64
2023/03/31 01:00:23;;;;;;;11.73;2.55;;;;;;;-146.27;100.00;83499.22;5081621;28;20063;-65
2023/03/31 01:03:01;;;;;;;10.40;2.92;;;;;;;-146.27;100.00;83529.38;5076296;28;20487;-64
2023/03/31 01:05:49;;;;;;;11.68;2.78;;;;;;;-146.27;100.00;83499.22;5090192;28;20028;-64
2023/03/31 01:08:16;;;;;;;11.40;2.20;;;;;;;-146.27;100.00;83515.31;5073487;28;20044;-64
2023/03/31 01:10:53;;;;;;;22.42;2.88;;;;;;;-146.27;100.00;83487.16;5085335;28;20043;-64
2023/03/31 01:13:20;;;;;;;16.23;2.75;;;;;;;-146.27;100.00;83501.22;5086410;28;20039;-64
2023/03/31 01:15:45;;;;;;;7.70;2.08;;;;;;;-146.27;100.00;83537.41;5077013;28;20054;-65
2023/03/31 01:18:13;;;;;;;10.95;2.53;;;;;;;-146.27;100.00;83525.34;5072469;28;20480;-64
2023/03/31 01:21:02;;;;;;;9.60;3.00;;;;;;;-146.27;100.00;83529.38;5076790;28;20016;-64
2023/03/31 01:23:37;;;;;;;10.52;2.53;;;;;;;-146.27;100.00;83505.25;5076097;28;20048;-64
2023/03/31 01:26:15;;;;;;;9.10;2.03;;;;;;;-146.27;100.00;83525.34;5078683;28;20078;-65
2023/03/31 01:29:04;;;;;;;11.57;2.42;;;;;;;-146.27;100.00;83527.34;5085330;28;20033;-65
2023/03/31 01:31:55;;;;;;;13.35;2.78;;;;;;;-146.27;100.00;83505.25;5082743;28;20028;-65
2023/03/31 01:34:23;;;;;;;15.95;3.13;;;;;;;-146.27;100.00;83521.34;5079310;28;20043;-65
2023/03/31 01:36:58;;;;;;;13.70;2.53;;;;;;;-146.27;100.00;83537.41;5083534;28;20020;-65
2023/03/31 01:40:01;;;;;;;14.10;2.30;;;;;;;-146.27;100.00;83541.41;5083139;28;20065;-65
2023/03/31 01:42:35;;;;;;;15.65;2.95;;;;;;;-146.27;100.00;83597.69;5093897;28;20024;-64
2023/03/31 01:45:19;;;;;;;15.85;3.00;;;;;;;-146.27;100.00;83609.75;5094086;28;20032;-64
2023/03/31 01:47:50;;;;;;;8.13;2.50;;;;;;;-146.27;100.00;83609.75;5078577;28;20094;-65
2023/03/31 01:50:28;;;;;;;13.13;2.63;;;;;;;-146.27;100.00;83625.81;5082697;28;20034;-64
2023/03/31 01:53:05;;;;;;;18.02;3.10;;;;;;;-146.27;100.00;83613.75;5075717;28;20055;-64
2023/03/31 01:55:38;;;;;;;20.38;2.95;;;;;;;-146.27;100.00;83657.97;5082183;28;20415;-64
2023/03/31 01:58:23;;;;;;;16.50;2.70;;;;;;;-146.27;100.00;83621.81;5094076;28;20074;-63
2023/03/31 02:01:00;;;;;;;10.13;2.72;;;;;;;-146.27;100.00;83633.84;5093200;28;20391;-63
2023/03/31 02:03:32;;;;;;;12.40;2.95;;;;;;;-146.27;100.00;83657.97;5078033;28;20472;-64
2023/03/31 02:06:04;;;;;;;9.90;3.05;;;;;;;-146.27;100.00;83682.09;5085030;28;20024;-64
2023/03/31 02:08:51;;;;;;;19.10;3.25;;;;;;;-146.27;100.00;83635.88;5091523;28;20101;-64
2023/03/31 02:11:17;;;;;;;23.88;4.00;;;;;;;-146.27;100.00;83649.94;5087448;28;20384;-63
2023/03/31 02:13:45;;;;;;;18.45;3.45;;;;;;;-146.27;100.00;83607.72;5078218;28;20028;-64
2023/03/31 02:16:17;;;;;;;23.67;3.58;;;;;;;-146.27;100.00;83698.16;5084092;28;20372;-64
2023/03/31 02:18:48;;;;;;;14.13;3.85;;;;;;;-146.27;100.00;83649.94;5081545;28;20047;-64
2023/03/31 02:21:15;;;;;;;17.20;3.67;;;;;;;-146.27;100.00;83662.00;5074960;28;20052;-64
2023/03/31 02:23:42;;;;;;;21.42;3.50;;;;;;;-146.27;100.00;83653.94;5085244;28;20028;-64
2023/03/31 02:26:16;;;;;;;15.20;3.38;;;;;;;-146.27;100.00;83662.00;5083291;28;20387;-64
2023/03/31 02:28:41;;;;;;;;;;;;;;;-146.27;100.00;83686.09;5093102;28;20040;-64
2023/03/31 02:31:11;;;;;;;19.40;3.80;;;;;;;-146.27;100.00;83696.16;5088925;28;19912;-64
2023/03/31 02:33:36;;;;;;;15.02;2.92;;;;;;;-146.27;100.00;83686.09;5093822;28;20028;-64
2023/03/31 02:36:02;;;;;;;20.10;3.13;;;;;;;-146.27;100.00;83674.03;5093869;28;20020;-64
2023/03/31 02:38:31;;;;;;;15.73;2.90;;;;;;;-146.27;100.00;83686.09;5091794;28;20024;-64
2023/03/31 02:40:57;;;;;;;12.80;3.13;;;;;;;-146.27;100.00;83653.94;5091837;28;20077;-64
2023/03/31 02:43:22;;;;;;;17.65;3.30;;;;;;;-146.27;100.00;83688.09;5086715;28;20028;-64
2023/03/31 02:45:50;;;;;;;10.75;3.53;;;;;;;-146.27;100.00;83662.00;5084410;28;20031;-64
2023/03/31 02:48:21;;;;;;;10.18;3.72;;;;;;;-146.27;100.00;83688.09;5088484;28;20328;-64
2023/03/31 02:50:46;;;;;;;18.92;4.00;;;;;;;-146.27;100.00;83657.97;5081997;28;20024;-64
2023/03/31 02:53:26;;;;;;;14.32;3.25;;;;;;;-146.27;100.00;83653.94;5076671;28;20024;-64
2023/03/31 02:56:07;;;;;;;13.05;4.15;;;;;;;-146.27;100.00;83704.19;5080387;28;20464;-65
2023/03/31 02:58:33;;;;;;;20.17;4.38;;;;;;;-146.27;100.00;83702.19;5079102;28;20529;-65
2023/03/31 03:01:27;;;;;;;19.58;4.28;;;;;;;-146.27;100.00;83714.22;5076908;28;20036;-64
2023/03/31 03:04:15;;;;;;;18.63;4.28;;;;;;;-146.27;100.00;83700.16;5062194;28;20075;-64
2023/03/31 03:07:00;;;;;;;9.55;3.63;;;;;;;-146.27;100.00;83716.25;5079745;28;20085;-64
2023/03/31 03:09:36;;;;;;;18.38;3.90;;;;;;;-146.27;100.00;83738.34;5080997;28;20048;-65
2023/03/31 03:12:12;;;;;;;23.98;4.13;;;;;;;-146.27;100.00;83730.31;5081364;28;20427;-64
2023/03/31 03:14:43;;;;;;;17.00;3.33;;;;;;;-146.27;100.00;83734.31;5084991;28;20104;-64
2023/03/31 03:17:20;;;;;;;14.07;3.00;;;;;;;-146.27;100.00;83730.31;5085471;28;20028;-65
2023/03/31 03:19:51;;;;;;;14.27;2.85;;;;;;;-146.27;100.00;83742.38;5079807;28;20025;-66
2023/03/31 03:22:16;;;;;;;16.10;2.78;;;;;;;-146.27;100.00;83756.44;5088967;28;20038;-66
2023/03/31 03:24:42;;;;;;;13.15;1.70;;;;;;;-146.27;100.00;83750.41;5077345;28;20103;-63
2023/03/31 03:27:07;;;;;;;9.95;1.80;;;;;;;-146.27;100.00;83726.28;5077560;28;20028;-63
2023/03/31 03:29:32;;;;;;;10.38;1.40;;;;;;;-146.27;100.00;83732.31;5081326;28;20052;-64
2023/03/31 03:31:58;;;;;;;5.90;1.73;;;;;;;-146.27;100.00;83782.56;5088481;28;20032;-65
2023/03/31 03:34:24;;;;;;;7.50;2.72;;;;;;;-146.27;100.00;83788.59;5078262;28;20020;-64
2023/03/31 03:36:50;;;;;;;8.40;1.95;;;;;;;-146.27;100.00;83782.56;5087037;28;20028;-64
2023/03/31 03:39:16;;;;;;;5.65;1.40;;;;;;;-146.27;100.00;83780.53;5081488;28;20546;-64
2023/03/31 03:41:41;;;;;;;7.90;1.50;;;;;;;-146.27;100.00;83778.53;5090451;28;20028;-63
2023/03/31 03:44:06;;;;;;;5.55;1.13;;;;;;;-146.27;100.00;83816.72;5077065;28;20028;-63
2023/03/31 03:46:32;;;;;;;4.82;0.95;;;;;;;-146.27;100.00;83800.63;5088948;28;20024;-64
2023/03/31 03:48:57;;;;;;;8.25;1.15;;;;;;;-146.27;100.00;83786.56;5084575;28;20028;-64
2023/03/31 03:51:23;;;;;;;8.10;1.45;;;;;;;-146.27;100.00;83836.81;5080441;28;20035;-64
2023/03/31 03:53:48;;;;;;;6.38;1.45;;;;;;;-146.27;100.00;83846.84;5086249;28;20020;-64
2023/03/31 03:56:14;;;;;;;6.97;1.67;;;;;;;-146.27;100.00;83774.53;5084835;28;20387;-65
2023/03/31 03:58:39;;;;;;;7.45;1.67;;;;;;;-146.27;100.00;83824.75;5086130;28;20123;-65
2023/03/31 04:01:05;;;;;;;10.55;2.17;;;;;;;-146.27;100.00;83844.84;5079192;28;20074;-66
2023/03/31 04:03:30;;;;;;;7.63;2.10;;;;;;;-146.27;100.00;83844.84;5080784;28;20032;-65
2023/03/31 04:05:56;;;;;;;8.95;2.17;;;;;;;-146.27;100.00;83792.59;5088267;28;20495;-65
2023/03/31 04:08:21;;;;;;;9.90;2.85;;;;;;;-146.27;100.00;83816.72;5080611;28;20063;-64
2023/03/31 04:10:48;;;;;;;9.13;4.22;;;;;;;-146.27;100.00;83798.63;5083133;28;20027;-65
2023/03/31 04:13:15;;;;;;;17.70;5.15;;;;;;;-146.27;100.00;83826.75;5091291;28;20031;-65
2023/03/31 04:15:41;;;;;;;13.98;4.78;;;;;;;-146.27;100.00;83810.69;5076367;28;20035;-65
2023/03/31 04:18:09;;;;;;;12.77;5.22;;;;;;;-146.27;100.00;83826.75;5084876;28;20464;-65
2023/03/31 04:20:36;;;;;;;15.25;6.13;;;;;;;-146.27;100.00;83804.66;5078081;28;20442;-65
2023/03/31 04:23:04;;;;;;;14.68;6.75;;;;;;;-146.27;100.00;83802.66;5080397;28;20081;-65
2023/03/31 04:25:30;;;;;;;26.38;7.70;;;;;;;-146.27;100.00;83764.47;5090795;28;20121;-64
2023/03/31 04:27:55;;;;;;;18.42;6.72;;;;;;;-146.27;100.00;83778.53;5091890;28;20028;-64
2023/03/31 04:30:29;;;;;;;13.15;5.68;;;;;;;-146.27;100.00;83812.69;5089462;28;20510;-65
2023/03/31 04:33:02;;;;;;;16.58;5.75;;;;;;;-146.27;100.00;83760.44;5087661;28;20487;-64
2023/03/31 04:35:48;;;;;;;20.00;5.75;;;;;;;-146.27;100.00;83772.50;5082089;28;20073;-64
2023/03/31 04:38:17;;;;;;;31.08;5.35;;;;;;;-146.27;100.00;83770.50;5082807;28;20500;-64
2023/03/31 04:40:45;;;;;;;21.50;5.15;;;;;;;-146.27;100.00;83758.44;5086422;28;20024;-64
2023/03/31 04:43:10;;;;;;;14.65;4.63;;;;;;;-146.27;100.00;83738.34;5083281;28;20036;-64
2023/03/31 04:45:36;;;;;;;15.65;4.35;;;;;;;-146.27;100.00;83766.47;5080359;28;20331;-65
2023/03/31 04:48:01;;;;;;;11.23;3.60;;;;;;;-146.27;100.00;83774.53;5091056;28;20020;-65
2023/03/31 04:50:27;;;;;;;12.98;3.67;;;;;;;-146.27;100.00;83776.53;5078114;28;21347;-65
2023/03/31 04:52:52;;;;;;;13.65;4.88;;;;;;;-146.27;100.00;83790.59;5076162;28;20027;-63
2023/03/31 04:55:18;;;;;;;8.32;3.72;;;;;;;-146.27;100.00;83772.50;5078790;28;20035;-63
2023/03/31 04:57:43;;;;;;;13.02;3.95;;;;;;;-146.27;100.00;83734.31;5082755;28;20028;-65
2023/03/31 05:00:09;;;;;;;11.75;3.72;;;;;;;-146.27;100.00;83784.56;5084645;28;20052;-64
2023/03/31 05:02:35;;;;;;;9.30;3.28;;;;;;;-146.27;100.00;83760.44;5079377;28;20034;-65
2023/03/31 05:05:00;;;;;;;11.65;3.40;;;;;;;-146.27;100.00;83798.63;5074125;28;20021;-65
2023/03/31 05:07:25;;;;;;;11.10;3.90;;;;;;;-146.27;100.00;83778.53;5080125;28;20142;-65
2023/03/31 05:09:51;;;;;;;10.98;3.58;;;;;;;-146.27;100.00;83780.53;5076785;28;20044;-65
2023/03/31 05:12:16;;;;;;;10.63;3.70;;;;;;;-146.27;100.00;83802.66;5088570;28;20123;-65
2023/03/31 05:14:41;;;;;;;14.05;3.33;;;;;;;-146.27;100.00;83794.63;5089185;28;20385;-64
2023/03/31 05:17:07;;;;;;;17.63;3.28;;;;;;;-146.27;100.00;83794.63;5081776;28;20025;-66
2023/03/31 05:19:32;;;;;;;15.10;4.30;;;;;;;-146.27;100.00;83774.53;5076042;28;20033;-66
2023/03/31 05:21:58;;;;;;;10.27;3.40;;;;;;;-146.27;100.00;83774.53;5090159;28;20494;-66
2023/03/31 05:24:23;;;;;;;11.43;3.42;;;;;;;-146.27;100.00;83806.66;5081367;28;20033;-66
2023/03/31 05:26:51;;;;;;;11.00;2.78;;;;;;;-146.27;100.00;83784.56;5089217;28;20078;-66
2023/03/31 05:29:20;;;;;;;10.55;2.25;;;;;;;-146.27;100.00;83774.53;5089015;28;20032;-66
2023/03/31 05:31:46;;;;;;;7.30;2.60;;;;;;;-146.27;100.00;83798.63;5080851;28;20059;-66
2023/03/31 05:34:12;;;;;;;8.85;2.30;;;;;;;-146.27;100.00;83776.53;5091561;28;20055;-65
2023/03/31 05:36:38;;;;;;;7.57;2.53;;;;;;;-146.27;100.00;83778.53;5087796;28;20076;-66
2023/03/31 05:39:04;;;;;;;4.25;2.10;;;;;;;-146.27;100.00;83806.66;5085837;28;20052;-64
2023/03/31 05:41:30;;;;;;;8.05;2.33;;;;;;;-146.27;100.00;83780.53;5085722;28;20475;-65
2023/03/31 05:43:55;;;;;;;7.90;2.00;;;;;;;-146.27;100.00;83794.63;5084259;28;20058;-65
2023/03/31 05:46:21;;;;;;;3.30;1.42;;;;;;;-146.27;100.00;83806.66;5087295;28;20044;-65
2023/03/31 05:48:46;;;;;;;8.50;1.88;;;;;;;-146.27;100.00;83748.41;5085569;28;20099;-65
2023/03/31 05:51:11;;;;;;;5.70;1.50;;;;;;;-146.27;100.00;83776.53;5088645;28;20121;-65
2023/03/31 05:53:37;;;;;;;4.88;1.92;;;;;;;-146.27;100.00;83764.47;5086391;28;20032;-65
2023/03/31 05:56:05;;;;;;;5.63;1.40;;;;;;;-146.27;100.00;83798.63;5086523;28;20056;-65
2023/03/31 05:58:35;;;;;;;3.28;1.40;;;;;;;-146.27;100.00;83810.69;5087650;28;20069;-65
2023/03/31 06:01:08;;;;;;;3.65;1.10;;;;;;;-146.27;100.00;83816.72;5082915;28;20555;-63
2023/03/31 06:03:35;;;;;;;3.05;1.02;;;;;;;-146.27;100.00;83802.66;5079611;28;20031;-63
2023/03/31 06:06:01;;;;;;;7.03;1.85;;;;;;;-146.27;100.00;83798.63;5084701;28;20050;-65
2023/03/31 06:08:27;;;;;;;4.32;1.35;;;;;;;-146.27;100.00;83810.69;5086669;28;20036;-64
2023/03/31 06:10:53;;;;;;;4.53;1.38;;;;;;;-146.27;100.00;83794.63;5086651;28;20040;-66
2023/03/31 06:13:18;;;;;;;3.08;1.10;;;;;;;-146.27;100.00;83826.75;5085774;28;20056;-64
2023/03/31 06:15:56;;;;;;;2.63;1.13;;;;;;;-146.27;100.00;83814.72;5081309;28;20115;-63
2023/03/31 06:18:22;;;;;;;6.78;1.50;;;;;;;-146.27;100.00;83818.72;5082242;28;20032;-65
2023/03/31 06:20:48;;;;;;;1.83;1.30;;;;;;;-146.27;100.00;83794.63;5081926;28;20032;-65
2023/03/31 06:23:13;;;;;;;3.65;1.45;;;;;;;-146.27;100.00;83826.75;5076645;28;20055;-64
2023/03/31 06:25:38;;;;;;;3.75;1.30;;;;;;;-146.27;100.00;83800.63;5086575;28;20162;-64
2023/03/31 06:28:06;;;;;;;4.25;1.30;;;;;;;-146.27;100.00;83820.75;5077972;28;20015;-64
2023/03/31 06:30:31;;;;;;;7.53;1.40;;;;;;;-146.27;100.00;83834.81;5089003;28;20029;-64
2023/03/31 06:32:57;;;;;;;4.75;1.30;;;;;;;-146.27;100.00;83838.81;5092687;28;20035;-64
2023/03/31 06:35:22;;;;;;;9.20;1.70;;;;;;;-146.27;100.00;83818.72;5088513;28;20047;-64
2023/03/31 06:37:47;;;;;;;5.95;1.55;;;;;;;-146.27;100.00;83858.91;5076175;28;20086;-64
2023/03/31 06:40:13;;;;;;;8.95;1.50;;;;;;;-146.27;100.00;83862.94;5081367;28;20024;-64
2023/03/31 06:42:38;;;;;;;7.88;2.53;;;;;;;-146.27;100.00;83824.75;5087328;28;20479;-64
2023/03/31 06:45:04;;;;;;;5.80;1.55;;;;;;;-146.27;100.00;83854.91;5082943;28;20350;-64
2023/03/31 06:47:29;;;;;;;5.13;1.58;;;;;;;-146.27;100.00;83842.84;5088474;28;20039;-66
2023/03/31 06:49:54;;;;;;;2.85;1.23;;;;;;;-146.27;100.00;83838.81;5079721;28;20111;-64
2023/03/31 06:52:20;;;;;;;7.45;1.63;;;;;;;-146.27;100.00;83860.94;5100933;28;20389;-65
2023/03/31 06:54:45;;;;;;;7.60;1.73;;;;;;;-146.27;100.00;83818.72;5091665;28;20013;-65
2023/03/31 06:57:11;;;;;;;6.03;1.95;;;;;;;-146.27;100.00;83850.88;5093715;28;20032;-65
2023/03/31 06:59:37;;;;;;;9.35;2.42;;;;;;;-146.27;100.00;83814.72;5085580;28;20369;-65
2023/03/31 07:02:03;;;;;;;6.47;2.40;;;;;;;-146.27;100.00;83808.69;5087043;28;20031;-65
2023/03/31 07:04:28;;;;;;;7.80;2.60;;;;;;;-146.27;100.00;83788.59;5093078;28;20035;-65
2023/03/31 07:06:54;;;;;;;8.80;2.47;;;;;;;-146.27;100.00;83806.66;5095186;27;20039;-66
2023/03/31 07:09:22;;;;;;;13.23;2.40;;;;;;;-146.27;100.00;83814.72;5085041;28;20851;-65
2023/03/31 07:11:47;;;;;;;7.32;2.50;;;;;;;-146.27;100.00;83812.69;5087090;28;20119;-66
2023/03/31 07:14:13;;;;;;;8.48;2.75;;;;;;;-146.27;100.00;83826.75;5100496;28;20107;-65
2023/03/31 07:16:38;;;;;;;9.18;3.15;;;;;;;-146.27;100.00;83772.50;5109764;28;20016;-65
2023/03/31 07:19:05;;;;;;;7.10;3.65;;;;;;;-146.27;100.00;83784.56;5082412;28;20125;-66
2023/03/31 07:21:31;;;;;;;15.30;3.88;;;;;;;-146.27;100.00;83770.50;5084695;28;20020;-65
2023/03/31 07:23:57;;;;;;;10.75;3.45;;;;;;;-146.27;100.00;83722.28;5091845;28;20024;-66
2023/03/31 07:26:23;;;;;;;14.55;4.20;;;;;;;-146.27;100.00;83758.44;5090393;28;20028;-66
2023/03/31 07:28:48;;;;;;;12.40;4.10;;;;;;;-146.27;100.00;83726.28;5086411;28;20032;-66
2023/03/31 07:31:14;;;;;;;11.02;5.05;;;;;;;-146.27;100.00;83742.38;5095489;28;20031;-65
2023/03/31 07:33:40;;;;;;;16.02;3.65;;;;;;;-146.27;100.00;83734.31;5098081;27;20019;-66
2023/03/31 07:36:06;;;;;;;13.20;3.70;;;;;;;-146.27;100.00;83726.28;5095078;28;20024;-65
2023/03/31 07:38:31;;;;;;;14.05;3.90;;;;;;;-146.27;100.00;83706.19;5101653;28;20028;-66
2023/03/31 07:40:57;;;;;;;11.88;3.42;;;;;;;-146.27;100.00;83750.41;5100990;27;20027;-68
2023/03/31 07:43:22;;;;;;;20.35;4.38;;;;;;;-146.27;100.00;83730.31;5085975;28;20118;-67
2023/03/31 07:45:48;;;;;;;15.93;4.10;;;;;;;-146.27;100.00;83730.31;5090540;28;20482;-66
2023/03/31 07:48:13;;;;;;;12.18;3.90;;;;;;;-146.27;100.00;83756.44;5091544;28;20035;-67
2023/03/31 07:50:39;;;;;;;19.88;5.22;;;;;;;-146.27;100.00;83720.25;5090567;28;20020;-66
2023/03/31 07:53:04;;;;;;;15.50;4.32;;;;;;;-146.27;100.00;83686.09;5108128;28;20048;-66
2023/03/31 07:55:30;;;;;;;14.00;3.63;;;;;;;-146.27;100.00;83678.06;5092421;28;20024;-66
2023/03/31 07:57:55;;;;;;;16.90;3.97;;;;;;;-146.27;100.00;83670.03;5084275;28;20023;-65
2023/03/31 08:00:21;;;;;;;20.30;3.17;;;;;;;-146.27;100.00;83674.03;5087154;28;20118;-66
2023/03/31 08:02:47;;;;;;;13.93;3.55;;;;;;;-146.27;100.00;83672.03;5082238;28;20507;-66
2023/03/31 08:05:15;;;;;;;10.40;3.13;;;;;;;-146.27;100.00;83698.16;5097749;28;20028;-66
2023/03/31 08:07:43;;;;;;;18.58;3.10;;;;;;;-146.27;100.00;83666.00;5091576;28;20030;-66
2023/03/31 08:10:12;;;;;;;12.90;2.28;;;;;;;-146.27;100.00;83645.91;5090403;27;20067;-66
2023/03/31 08:12:37;;;;;;;18.15;3.08;;;;;;;-146.27;100.00;83649.94;5091383;28;20075;-68
2023/03/31 08:15:03;;;;;;;19.88;3.08;;;;;;;-146.27;100.00;83633.84;5090074;28;20093;-67
2023/03/31 08:17:29;;;;;;;10.50;3.10;;;;;;;-146.27;100.00;83629.84;5082397;28;20024;-65
2023/03/31 08:19:55;;;;;;;18.23;3.42;;;;;;;-146.27;100.00;83593.66;5090607;28;20028;-65
2023/03/31 08:22:22;;;;;;;11.82;3.15;;;;;;;-146.27;100.00;83577.59;5091824;28;20130;-65
2023/03/31 08:24:47;;;;;;;17.38;3.25;;;;;;;-146.27;100.00;83593.66;5090065;28;20047;-66
2023/03/31 08:27:13;;;;;;;8.77;2.63;;;;;;;-146.27;100.00;83585.63;5087346;28;20028;-68
2023/03/31 08:29:38;;;;;;;17.55;3.42;;;;;;;-146.27;100.00;83601.72;5089180;28;20028;-66
2023/03/31 08:32:04;;;;;;;13.90;3.83;;;;;;;-146.27;100.00;83597.69;5083461;28;20032;-66
2023/03/31 08:34:29;;;;;;;13.30;3.30;;;;;;;-146.27;100.00;83645.91;5087293;28;20119;-65
2023/03/31 08:36:55;;;;;;;23.60;4.03;;;;;;;-146.27;100.00;83629.84;5091794;28;20035;-66
2023/03/31 08:39:20;;;;;;;16.05;4.35;;;;;;;-146.27;100.00;83617.78;5085588;28;20463;-66
2023/03/31 08:42:15;;;;;;;23.23;4.32;;;;;;;-146.27;100.00;83627.81;5084284;28;20107;-67
2023/03/31 08:44:49;;;;;;;15.30;3.95;;;;;;;-146.27;100.00;83659.97;5089472;28;20035;-66
2023/03/31 08:47:19;;;;;;;18.00;3.60;;;;;;;-146.27;100.00;83625.81;5091116;28;20028;-67
2023/03/31 08:49:52;;;;;;;15.15;4.03;;;;;;;-146.27;100.00;83629.84;5088746;28;20055;-67
2023/03/31 08:52:23;;;;;;;18.35;4.28;;;;;;;-146.27;100.00;83657.97;5090874;28;20028;-67
2023/03/31 08:54:55;;;;;;;14.80;3.92;;;;;;;-146.27;100.00;83611.75;5091849;28;20107;-66
2023/03/31 08:57:26;;;;;;;22.10;4.03;;;;;;;-146.27;100.00;83631.84;5090963;28;20492;-66
2023/03/31 08:59:57;;;;;;;16.15;3.53;;;;;;;-146.27;100.00;83595.69;5089152;28;20074;-66
2023/03/31 09:02:47;;;;;;;17.00;3.95;;;;;;;-146.27;100.00;83649.94;5085027;28;20023;-66
2023/03/31 09:05:39;;;;;;;15.00;3.40;;;;;;;-146.27;100.00;83613.75;5088354;28;20028;-67
2023/03/31 09:08:16;;;;;;;21.23;2.97;;;;;;;-146.27;100.00;83569.56;5080135;28;20091;-67
2023/03/31 09:10:59;;;;;;;15.48;2.88;;;;;;;-146.27;100.00;83571.56;5085183;28;20032;-67
2023/03/31 09:13:43;;;;;;;13.00;2.72;;;;;;;-146.27;100.00;83507.25;5072980;28;20024;-66
2023/03/31 09:16:33;;;;;;;14.07;2.83;;;;;;;-146.27;100.00;83511.28;5082708;28;20448;-66
2023/03/31 09:19:00;;;;;;;17.95;3.00;;;;;;;-146.27;100.00;83525.34;5073403;28;20044;-67
2023/03/31 09:21:40;;;;;;;26.60;3.90;;;;;;;-146.27;100.00;83517.31;5084861;28;20043;-67
2023/03/31 09:24:35;;;;;;;16.35;2.72;;;;;;;-146.27;100.00;83543.44;5100289;28;20019;-67
2023/03/31 09:27:04;;;;;;;18.85;3.05;;;;;;;-146.27;100.00;83551.47;5072627;28;20047;-66
2023/03/31 09:29:51;;;;;;;15.88;2.70;;;;;;;-146.27;100.00;83503.25;5088503;28;20115;-67
2023/03/31 09:32:20;;;;;;;13.38;2.60;;;;;;;-146.27;100.00;83563.53;5097190;28;20063;-66
2023/03/31 09:34:50;;;;;;;16.23;3.63;;;;;;;-146.27;100.00;83613.75;5088617;28;20032;-66
2023/03/31 09:37:15;;;;;;;16.40;3.42;;;;;;;-146.27;100.00;83551.47;5094975;28;20027;-67
2023/03/31 09:39:41;;;;;;;14.00;3.05;;;;;;;-146.27;100.00;83609.75;5099543;28;20023;-66
2023/03/31 09:42:11;;;;;;;17.42;2.97;;;;;;;-146.27;100.00;83585.63;5093025;28;20036;-66
2023/03/31 09:44:40;;;;;;;21.50;3.65;;;;;;;-146.27;100.00;83549.47;5098422;28;20107;-64
2023/03/31 09:47:12;;;;;;;15.20;3.15;;;;;;;-146.27;100.00;83589.66;5104451;28;20034;-66
2023/03/31 09:49:39;;;;;;;22.98;4.15;;;;;;;-146.27;100.00;83682.09;5098432;28;20051;-66
2023/03/31 09:52:23;;;;;;;18.83;3.50;;;;;;;-146.27;100.00;83613.75;5087930;28;20030;-65
2023/03/31 09:54:51;;;;;;;20.52;3.42;;;;;;;-146.27;100.00;83623.81;5087914;28;20059;-66
2023/03/31 09:57:34;;;;;;;19.05;3.63;;;;;;;-146.27;100.00;83567.53;5095771;28;20046;-65
2023/03/31 10:00:15;;;;;;;21.17;3.37;;;;;;;-146.27;100.00;83581.59;5082803;28;20434;-65
2023/03/31 10:02:48;;;;;;;29.58;3.97;;;;;;;-146.27;100.00;83591.66;5095939;28;20052;-65
2023/03/31 10:05:35;;;;;;;16.17;2.97;;;;;;;-146.27;100.00;83599.69;5089396;28;20081;-65
2023/03/31 10:08:15;;;;;;;15.10;2.95;;;;;;;-146.27;100.00;83603.72;5093412;28;20055;-65
2023/03/31 10:10:53;;;;;;;16.23;3.05;;;;;;;-146.27;100.00;83599.69;5092702;28;20040;-66
2023/03/31 10:13:23;;;;;;;17.38;3.45;;;;;;;-146.27;100.00;83599.69;5089849;28;20043;-65
2023/03/31 10:15:52;;;;;;;17.20;3.13;;;;;;;-146.27;100.00;83601.72;5088564;28;20027;-65
2023/03/31 10:18:19;;;;;;;19.38;3.40;;;;;;;-146.27;100.00;83537.41;5091334;28;20448;-65
2023/03/31 10:20:50;;;;;;;16.77;2.92;;;;;;;-146.27;100.00;83591.66;5087023;28;20024;-66
2023/03/31 10:23:23;;;;;;;18.90;2.78;;;;;;;-146.27;100.00;83565.53;5090146;28;20480;-65
2023/03/31 10:25:49;;;;;;;23.35;3.72;;;;;;;-146.27;100.00;83647.91;5085158;28;20028;-65
2023/03/31 10:28:17;;;;;;;18.40;3.00;;;;;;;-146.27;100.00;83653.94;5085101;28;20036;-66
2023/03/31 10:30:52;;;;;;;19.63;3.88;;;;;;;-146.27;100.00;83706.19;5096798;28;20012;-66
2023/03/31 10:33:29;;;;;;;19.70;3.08;;;;;;;-146.27;100.00;83710.22;5088780;28;20039;-65
2023/03/31 10:35:57;;;;;;;16.30;3.35;;;;;;;-146.27;100.00;83653.94;5089850;28;20061;-65
2023/03/31 10:38:30;;;;;;;17.20;3.35;;;;;;;-146.27;100.00;83686.09;5087710;28;20044;-64
2023/03/31 10:40:58;;;;;;;7.10;1.55;;;;;;;-146.27;100.00;83746.38;5102262;28;20072;-65
2023/03/31 10:43:27;;;;;;;14.10;2.17;;;;;;;-146.27;100.00;83714.22;5095168;28;20031;-66
2023/03/31 10:45:59;;;;;;;12.38;1.98;;;;;;;-146.27;100.00;83698.16;5095880;28;20027;-64
2023/03/31 10:48:37;;;;;;;16.75;2.47;;;;;;;-146.27;100.00;83672.03;5093968;28;20495;-65
2023/03/31 10:51:25;;;;;;;11.50;2.40;;;;;;;-146.27;100.00;83678.06;5095283;28;20549;-66
2023/03/31 10:53:53;;;;;;;10.82;2.05;;;;;;;-146.27;100.00;83702.19;5084899;28;20099;-66
2023/03/31 10:56:42;;;;;;;14.48;2.55;;;;;;;-146.27;100.00;83674.03;5098922;28;20031;-66
2023/03/31 10:59:18;;;;;;;12.25;2.03;;;;;;;-146.27;100.00;83678.06;5085258;28;20034;-65
2023/03/31 11:01:59;;;;;;;15.82;2.00;;;;;;;-146.27;100.00;83641.91;5082842;28;20032;-66
2023/03/31 11:04:39;;;;;;;8.50;2.03;;;;;;;-146.27;100.00;83653.94;5080467;28;20430;-66
2023/03/31 11:07:28;;;;;;;17.25;2.40;;;;;;;-146.27;100.00;83657.97;5085203;28;20028;-66
2023/03/31 11:10:23;;;;;;;10.48;2.25;;;;;;;-146.27;100.00;83664.00;5096575;28;20048;-65
2023/03/31 11:12:57;;;;;;;15.23;2.15;;;;;;;-146.27;100.00;83698.16;5095673;28;20020;-65
2023/03/31 11:15:34;;;;;;;23.80;2.78;;;;;;;-146.27;100.00;83686.09;5101916;28;20031;-66
2023/03/31 11:18:06;;;;;;;19.98;2.70;;;;;;;-146.27;100.00;83633.84;5101180;28;20027;-67